sensor_id;sensor_type;location;lat;lon;timestamp;P1;durP1;ratioP1;P2;durP2;ratioP2
56726;SDS011;42609;52.700;6.236;2023-04-01T00:00:20;5.68;;;3.30;;
56726;SDS011;42609;52.700;6.236;2023-04-01T00:02:45;5.40;;;3.17;;
56726;SDS011;42609;52.700;6.236;2023-04-01T00:05:12;4.82;;;3.08;;
56726;SDS011;42609;52.700;6.236;2023-04-01T00:07:38;6.63;;;3.70;;
56726;SDS011;42609;52.700;6.236;2023-04-01T00:10:05;5.72;;;3.20;;
56726;SDS011;42609;52.700;6.236;2023-04-01T00:12:32;5.80;;;3.13;;
56726;SDS011;42609;52.700;6.236;2023-04-01T00:14:58;6.18;;;3.33;;
56726;SDS011;42609;52.700;6.236;2023-04-01T00:17:24;5.22;;;3.03;;
56726;SDS011;42609;52.700;6.236;2023-04-01T00:19:50;5.50;;;3.50;;
56726;SDS011;42609;52.700;6.236;2023-04-01T00:22:15;6.00;;;3.20;;
56726;SDS011;42609;52.700;6.236;2023-04-01T00:24:41;5.65;;;3.33;;
56726;SDS011;42609;52.700;6.236;2023-04-01T00:27:07;6.38;;;3.22;;
56726;SDS011;42609;52.700;6.236;2023-04-01T00:29:33;6.97;;;3.35;;
56726;SDS011;42609;52.700;6.236;2023-04-01T00:31:59;6.47;;;3.30;;
56726;SDS011;42609;52.700;6.236;2023-04-01T00:34:25;6.32;;;3.30;;
56726;SDS011;42609;52.700;6.236;2023-04-01T00:36:51;5.18;;;3.30;;
56726;SDS011;42609;52.700;6.236;2023-04-01T00:39:18;5.10;;;3.40;;
56726;SDS011;42609;52.700;6.236;2023-04-01T00:41:44;7.10;;;3.83;;
56726;SDS011;42609;52.700;6.236;2023-04-01T00:44:21;5.55;;;3.63;;
56726;SDS011;42609;52.700;6.236;2023-04-01T00:46:48;5.53;;;3.45;;
56726;SDS011;42609;52.700;6.236;2023-04-01T00:49:15;5.95;;;3.53;;
56726;SDS011;42609;52.700;6.236;2023-04-01T00:51:42;5.60;;;3.45;;
56726;SDS011;42609;52.700;6.236;2023-04-01T00:54:13;5.28;;;3.08;;
56726;SDS011;42609;52.700;6.236;2023-04-01T00:56:57;5.70;;;3.88;;
56726;SDS011;42609;52.700;6.236;2023-04-01T00:59:29;7.03;;;3.72;;
56726;SDS011;42609;52.700;6.236;2023-04-01T01:01:58;6.53;;;3.80;;
56726;SDS011;42609;52.700;6.236;2023-04-01T01:04:27;6.20;;;3.88;;
56726;SDS011;42609;52.700;6.236;2023-04-01T01:06:56;7.00;;;3.85;;
56726;SDS011;42609;52.700;6.236;2023-04-01T01:09:38;7.10;;;3.50;;
56726;SDS011;42609;52.700;6.236;2023-04-01T01:12:12;6.28;;;3.75;;
56726;SDS011;42609;52.700;6.236;2023-04-01T01:14:53;5.72;;;3.60;;
56726;SDS011;42609;52.700;6.236;2023-04-01T01:20:33;5.43;;;3.67;;
56726;SDS011;42609;52.700;6.236;2023-04-01T01:34:22;6.13;;;4.15;;
56726;SDS011;42609;52.700;6.236;2023-04-01T01:37:06;6.43;;;4.03;;
56726;SDS011;42609;52.700;6.236;2023-04-01T01:39:35;5.88;;;3.90;;
56726;SDS011;42609;52.700;6.236;2023-04-01T01:42:04;6.57;;;4.15;;
56726;SDS011;42609;52.700;6.236;2023-04-01T01:44:31;6.45;;;4.10;;
56726;SDS011;42609;52.700;6.236;2023-04-01T01:46:58;8.52;;;4.60;;
56726;SDS011;42609;52.700;6.236;2023-04-01T01:49:25;7.25;;;4.68;;
56726;SDS011;42609;52.700;6.236;2023-04-01T01:51:52;6.53;;;4.55;;
56726;SDS011;42609;52.700;6.236;2023-04-01T01:54:18;7.15;;;4.30;;
56726;SDS011;42609;52.700;6.236;2023-04-01T01:56:45;6.95;;;4.47;;
56726;SDS011;42609;52.700;6.236;2023-04-01T01:59:14;6.70;;;4.13;;
56726;SDS011;42609;52.700;6.236;2023-04-01T02:01:45;7.15;;;4.93;;
56726;SDS011;42609;52.700;6.236;2023-04-01T02:04:14;7.63;;;4.70;;
56726;SDS011;42609;52.700;6.236;2023-04-01T02:07:16;7.45;;;5.00;;
56726;SDS011;42609;52.700;6.236;2023-04-01T02:09:37;6.78;;;5.28;;
56726;SDS011;42609;52.700;6.236;2023-04-01T02:12:04;7.60;;;4.88;;
56726;SDS011;42609;52.700;6.236;2023-04-01T02:14:43;7.75;;;5.00;;
56726;SDS011;42609;52.700;6.236;2023-04-01T02:17:16;8.38;;;4.65;;
56726;SDS011;42609;52.700;6.236;2023-04-01T02:19:46;7.70;;;5.00;;
56726;SDS011;42609;52.700;6.236;2023-04-01T02:22:16;7.85;;;5.00;;
56726;SDS011;42609;52.700;6.236;2023-04-01T02:24:46;8.07;;;5.30;;
56726;SDS011;42609;52.700;6.236;2023-04-01T02:27:14;7.13;;;4.65;;
56726;SDS011;42609;52.700;6.236;2023-04-01T02:29:40;8.43;;;5.05;;
56726;SDS011;42609;52.700;6.236;2023-04-01T02:32:05;7.60;;;5.10;;
56726;SDS011;42609;52.700;6.236;2023-04-01T02:34:32;7.90;;;5.40;;
56726;SDS011;42609;52.700;6.236;2023-04-01T02:36:58;7.60;;;5.13;;
56726;SDS011;42609;52.700;6.236;2023-04-01T02:39:24;8.32;;;4.97;;
56726;SDS011;42609;52.700;6.236;2023-04-01T02:41:51;8.48;;;4.90;;
56726;SDS011;42609;52.700;6.236;2023-04-01T02:44:17;8.32;;;5.07;;
56726;SDS011;42609;52.700;6.236;2023-04-01T02:46:43;7.50;;;4.72;;
56726;SDS011;42609;52.700;6.236;2023-04-01T02:49:09;6.93;;;4.82;;
56726;SDS011;42609;52.700;6.236;2023-04-01T02:51:34;6.55;;;4.72;;
56726;SDS011;42609;52.700;6.236;2023-04-01T02:54:00;7.82;;;5.18;;
56726;SDS011;42609;52.700;6.236;2023-04-01T02:56:26;7.20;;;5.10;;
56726;SDS011;42609;52.700;6.236;2023-04-01T02:58:52;5.95;;;4.32;;
56726;SDS011;42609;52.700;6.236;2023-04-01T03:01:18;7.28;;;4.85;;
56726;SDS011;42609;52.700;6.236;2023-04-01T03:03:44;8.07;;;5.40;;
56726;SDS011;42609;52.700;6.236;2023-04-01T03:06:11;8.40;;;5.20;;
56726;SDS011;42609;52.700;6.236;2023-04-01T03:08:38;6.55;;;4.72;;
56726;SDS011;42609;52.700;6.236;2023-04-01T03:11:04;8.02;;;4.88;;
56726;SDS011;42609;52.700;6.236;2023-04-01T03:13:30;7.82;;;5.07;;
56726;SDS011;42609;52.700;6.236;2023-04-01T03:15:56;7.25;;;4.82;;
56726;SDS011;42609;52.700;6.236;2023-04-01T03:18:22;7.80;;;5.07;;
56726;SDS011;42609;52.700;6.236;2023-04-01T03:20:48;8.70;;;5.60;;
56726;SDS011;42609;52.700;6.236;2023-04-01T03:23:13;8.90;;;5.40;;
56726;SDS011;42609;52.700;6.236;2023-04-01T03:25:39;9.57;;;5.47;;
56726;SDS011;42609;52.700;6.236;2023-04-01T03:28:05;8.50;;;5.47;;
56726;SDS011;42609;52.700;6.236;2023-04-01T03:30:30;8.98;;;5.65;;
56726;SDS011;42609;52.700;6.236;2023-04-01T03:32:56;8.88;;;5.72;;
56726;SDS011;42609;52.700;6.236;2023-04-01T03:35:23;9.80;;;6.18;;
56726;SDS011;42609;52.700;6.236;2023-04-01T03:37:50;8.07;;;5.80;;
56726;SDS011;42609;52.700;6.236;2023-04-01T03:40:16;10.23;;;6.38;;
56726;SDS011;42609;52.700;6.236;2023-04-01T03:42:42;8.60;;;5.38;;
56726;SDS011;42609;52.700;6.236;2023-04-01T03:45:08;9.15;;;6.10;;
56726;SDS011;42609;52.700;6.236;2023-04-01T03:47:34;8.00;;;5.43;;
56726;SDS011;42609;52.700;6.236;2023-04-01T03:50:00;9.15;;;6.20;;
56726;SDS011;42609;52.700;6.236;2023-04-01T03:52:25;9.43;;;6.13;;
56726;SDS011;42609;52.700;6.236;2023-04-01T03:54:51;9.77;;;6.40;;
56726;SDS011;42609;52.700;6.236;2023-04-01T03:57:17;9.75;;;6.40;;
56726;SDS011;42609;52.700;6.236;2023-04-01T03:59:42;10.35;;;6.40;;
56726;SDS011;42609;52.700;6.236;2023-04-01T04:02:08;9.23;;;5.72;;
56726;SDS011;42609;52.700;6.236;2023-04-01T04:04:33;8.82;;;5.63;;
56726;SDS011;42609;52.700;6.236;2023-04-01T04:06:59;9.10;;;6.07;;
56726;SDS011;42609;52.700;6.236;2023-04-01T04:09:25;9.57;;;6.45;;
56726;SDS011;42609;52.700;6.236;2023-04-01T04:11:50;10.38;;;6.53;;
56726;SDS011;42609;52.700;6.236;2023-04-01T04:14:16;12.55;;;7.20;;
56726;SDS011;42609;52.700;6.236;2023-04-01T04:16:42;10.95;;;7.05;;
56726;SDS011;42609;52.700;6.236;2023-04-01T04:19:07;10.45;;;6.75;;
56726;SDS011;42609;52.700;6.236;2023-04-01T04:21:33;10.43;;;7.18;;
56726;SDS011;42609;52.700;6.236;2023-04-01T04:24:02;11.80;;;7.30;;
56726;SDS011;42609;52.700;6.236;2023-04-01T04:26:27;12.73;;;7.88;;
56726;SDS011;42609;52.700;6.236;2023-04-01T04:28:53;11.02;;;7.15;;
56726;SDS011;42609;52.700;6.236;2023-04-01T04:31:21;12.48;;;7.65;;
56726;SDS011;42609;52.700;6.236;2023-04-01T04:33:48;12.48;;;7.57;;
56726;SDS011;42609;52.700;6.236;2023-04-01T04:36:13;12.20;;;7.65;;
56726;SDS011;42609;52.700;6.236;2023-04-01T04:38:39;12.25;;;7.93;;
56726;SDS011;42609;52.700;6.236;2023-04-01T04:41:09;10.60;;;6.97;;
56726;SDS011;42609;52.700;6.236;2023-04-01T04:43:36;11.63;;;7.47;;
56726;SDS011;42609;52.700;6.236;2023-04-01T04:46:09;11.95;;;7.75;;
56726;SDS011;42609;52.700;6.236;2023-04-01T04:48:35;14.77;;;8.32;;
56726;SDS011;42609;52.700;6.236;2023-04-01T04:51:01;12.95;;;8.02;;
56726;SDS011;42609;52.700;6.236;2023-04-01T04:53:27;11.90;;;7.35;;
56726;SDS011;42609;52.700;6.236;2023-04-01T04:55:52;15.63;;;8.05;;
56726;SDS011;42609;52.700;6.236;2023-04-01T04:58:18;12.43;;;7.95;;
56726;SDS011;42609;52.700;6.236;2023-04-01T05:00:44;13.55;;;8.07;;
56726;SDS011;42609;52.700;6.236;2023-04-01T05:03:10;13.70;;;8.70;;
56726;SDS011;42609;52.700;6.236;2023-04-01T05:05:36;13.68;;;8.80;;
56726;SDS011;42609;52.700;6.236;2023-04-01T05:08:03;15.68;;;9.43;;
56726;SDS011;42609;52.700;6.236;2023-04-01T05:10:28;13.85;;;8.68;;
56726;SDS011;42609;52.700;6.236;2023-04-01T05:12:54;14.82;;;9.00;;
56726;SDS011;42609;52.700;6.236;2023-04-01T05:15:20;15.23;;;8.98;;
56726;SDS011;42609;52.700;6.236;2023-04-01T05:17:46;15.82;;;8.98;;
56726;SDS011;42609;52.700;6.236;2023-04-01T05:20:12;14.85;;;9.10;;
56726;SDS011;42609;52.700;6.236;2023-04-01T05:22:39;14.63;;;8.88;;
56726;SDS011;42609;52.700;6.236;2023-04-01T05:25:05;15.70;;;8.32;;
56726;SDS011;42609;52.700;6.236;2023-04-01T05:27:31;10.75;;;6.57;;
56726;SDS011;42609;52.700;6.236;2023-04-01T05:29:57;10.48;;;6.00;;
56726;SDS011;42609;52.700;6.236;2023-04-01T05:32:23;9.80;;;5.30;;
56726;SDS011;42609;52.700;6.236;2023-04-01T05:34:53;7.55;;;4.38;;
56726;SDS011;42609;52.700;6.236;2023-04-01T05:37:19;6.13;;;3.58;;
56726;SDS011;42609;52.700;6.236;2023-04-01T05:39:45;6.63;;;3.92;;
56726;SDS011;42609;52.700;6.236;2023-04-01T05:42:10;6.93;;;3.50;;
56726;SDS011;42609;52.700;6.236;2023-04-01T05:44:36;7.30;;;3.45;;
56726;SDS011;42609;52.700;6.236;2023-04-01T05:47:02;5.63;;;3.17;;
56726;SDS011;42609;52.700;6.236;2023-04-01T05:49:29;6.93;;;3.33;;
56726;SDS011;42609;52.700;6.236;2023-04-01T05:51:55;6.15;;;2.90;;
56726;SDS011;42609;52.700;6.236;2023-04-01T05:54:21;5.75;;;2.60;;
56726;SDS011;42609;52.700;6.236;2023-04-01T05:56:47;5.20;;;2.35;;
56726;SDS011;42609;52.700;6.236;2023-04-01T05:59:13;5.18;;;2.15;;
56726;SDS011;42609;52.700;6.236;2023-04-01T06:01:39;4.93;;;2.38;;
56726;SDS011;42609;52.700;6.236;2023-04-01T06:04:05;4.57;;;2.20;;
56726;SDS011;42609;52.700;6.236;2023-04-01T06:06:31;5.40;;;2.78;;
56726;SDS011;42609;52.700;6.236;2023-04-01T06:08:58;5.35;;;2.70;;
56726;SDS011;42609;52.700;6.236;2023-04-01T06:11:46;5.00;;;2.63;;
56726;SDS011;42609;52.700;6.236;2023-04-01T06:20:12;7.43;;;3.92;;
56726;SDS011;42609;52.700;6.236;2023-04-01T06:25:31;9.43;;;5.35;;
56726;SDS011;42609;52.700;6.236;2023-04-01T06:28:05;9.55;;;6.05;;
56726;SDS011;42609;52.700;6.236;2023-04-01T06:30:52;11.32;;;6.28;;
56726;SDS011;42609;52.700;6.236;2023-04-01T06:33:35;14.45;;;6.93;;
56726;SDS011;42609;52.700;6.236;2023-04-01T06:43:57;14.60;;;6.82;;
56726;SDS011;42609;52.700;6.236;2023-04-01T06:54:53;10.48;;;5.05;;
56726;SDS011;42609;52.700;6.236;2023-04-01T06:57:30;10.63;;;5.38;;
56726;SDS011;42609;52.700;6.236;2023-04-01T07:00:03;9.98;;;4.60;;
56726;SDS011;42609;52.700;6.236;2023-04-01T07:02:41;8.13;;;4.45;;
56726;SDS011;42609;52.700;6.236;2023-04-01T07:05:23;8.30;;;4.30;;
56726;SDS011;42609;52.700;6.236;2023-04-01T07:07:50;8.50;;;4.57;;
56726;SDS011;42609;52.700;6.236;2023-04-01T07:10:31;7.38;;;4.13;;
56726;SDS011;42609;52.700;6.236;2023-04-01T07:13:28;10.13;;;4.80;;
56726;SDS011;42609;52.700;6.236;2023-04-01T07:21:32;12.57;;;6.00;;
56726;SDS011;42609;52.700;6.236;2023-04-01T07:24:09;12.32;;;6.07;;
56726;SDS011;42609;52.700;6.236;2023-04-01T07:26:41;10.38;;;5.30;;
56726;SDS011;42609;52.700;6.236;2023-04-01T07:29:10;9.52;;;5.13;;
56726;SDS011;42609;52.700;6.236;2023-04-01T07:35:01;7.70;;;4.13;;
56726;SDS011;42609;52.700;6.236;2023-04-01T07:39:44;9.38;;;4.20;;
56726;SDS011;42609;52.700;6.236;2023-04-01T07:51:01;8.23;;;4.10;;
56726;SDS011;42609;52.700;6.236;2023-04-01T08:01:39;9.40;;;5.88;;
56726;SDS011;42609;52.700;6.236;2023-04-01T08:09:31;7.43;;;4.88;;
56726;SDS011;42609;52.700;6.236;2023-04-01T08:20:28;6.25;;;3.47;;
56726;SDS011;42609;52.700;6.236;2023-04-01T08:25:44;4.95;;;2.90;;
56726;SDS011;42609;52.700;6.236;2023-04-01T08:30:56;5.38;;;2.50;;
56726;SDS011;42609;52.700;6.236;2023-04-01T08:33:31;4.60;;;2.40;;
56726;SDS011;42609;52.700;6.236;2023-04-01T08:38:34;4.60;;;2.55;;
56726;SDS011;42609;52.700;6.236;2023-04-01T08:49:06;4.30;;;2.42;;
56726;SDS011;42609;52.700;6.236;2023-04-01T08:51:46;4.28;;;2.45;;
56726;SDS011;42609;52.700;6.236;2023-04-01T08:54:21;5.90;;;3.05;;
56726;SDS011;42609;52.700;6.236;2023-04-01T09:05:18;6.10;;;3.65;;
56726;SDS011;42609;52.700;6.236;2023-04-01T09:08:07;5.75;;;3.75;;
56726;SDS011;42609;52.700;6.236;2023-04-01T09:16:43;6.85;;;4.10;;
56726;SDS011;42609;52.700;6.236;2023-04-01T09:19:19;6.30;;;4.00;;
56726;SDS011;42609;52.700;6.236;2023-04-01T09:22:22;6.78;;;4.35;;
56726;SDS011;42609;52.700;6.236;2023-04-01T09:27:56;6.45;;;4.00;;
56726;SDS011;42609;52.700;6.236;2023-04-01T09:30:33;7.30;;;4.20;;
56726;SDS011;42609;52.700;6.236;2023-04-01T09:36:19;4.90;;;2.80;;
56726;SDS011;42609;52.700;6.236;2023-04-01T09:38:58;5.10;;;2.15;;
56726;SDS011;42609;52.700;6.236;2023-04-01T09:41:47;4.30;;;2.10;;
56726;SDS011;42609;52.700;6.236;2023-04-01T09:47:25;3.08;;;1.73;;
56726;SDS011;42609;52.700;6.236;2023-04-01T09:58:20;3.60;;;2.05;;
56726;SDS011;42609;52.700;6.236;2023-04-01T10:01:20;4.25;;;1.80;;
56726;SDS011;42609;52.700;6.236;2023-04-01T10:04:08;4.40;;;2.00;;
56726;SDS011;42609;52.700;6.236;2023-04-01T10:20:43;7.25;;;4.88;;
56726;SDS011;42609;52.700;6.236;2023-04-01T10:23:21;6.68;;;4.65;;
56726;SDS011;42609;52.700;6.236;2023-04-01T10:26:16;7.32;;;4.72;;
56726;SDS011;42609;52.700;6.236;2023-04-01T10:38:26;8.70;;;5.60;;
56726;SDS011;42609;52.700;6.236;2023-04-01T10:44:05;7.65;;;5.13;;
56726;SDS011;42609;52.700;6.236;2023-04-01T10:49:28;9.27;;;5.80;;
56726;SDS011;42609;52.700;6.236;2023-04-01T11:11:41;9.60;;;6.30;;
56726;SDS011;42609;52.700;6.236;2023-04-01T11:17:27;9.20;;;6.70;;
56726;SDS011;42609;52.700;6.236;2023-04-01T11:23:29;8.70;;;6.30;;
56726;SDS011;42609;52.700;6.236;2023-04-01T11:26:08;10.45;;;7.03;;
56726;SDS011;42609;52.700;6.236;2023-04-01T11:31:43;9.07;;;6.60;;
56726;SDS011;42609;52.700;6.236;2023-04-01T11:34:50;9.85;;;7.55;;
56726;SDS011;42609;52.700;6.236;2023-04-01T11:54:00;8.18;;;4.53;;
56726;SDS011;42609;52.700;6.236;2023-04-01T12:08:04;6.28;;;4.28;;
56726;SDS011;42609;52.700;6.236;2023-04-01T12:16:13;7.85;;;4.80;;
56726;SDS011;42609;52.700;6.236;2023-04-01T12:19:03;6.25;;;4.50;;
56726;SDS011;42609;52.700;6.236;2023-04-01T12:21:35;6.53;;;4.45;;
56726;SDS011;42609;52.700;6.236;2023-04-01T12:27:00;6.70;;;4.40;;
56726;SDS011;42609;52.700;6.236;2023-04-01T12:29:54;6.00;;;4.15;;
56726;SDS011;42609;52.700;6.236;2023-04-01T12:35:14;6.20;;;4.07;;
56726;SDS011;42609;52.700;6.236;2023-04-01T12:37:46;6.60;;;4.28;;
56726;SDS011;42609;52.700;6.236;2023-04-01T12:40:31;5.90;;;4.00;;
56726;SDS011;42609;52.700;6.236;2023-04-01T12:48:31;5.55;;;3.67;;
56726;SDS011;42609;52.700;6.236;2023-04-01T12:51:12;5.95;;;3.75;;
56726;SDS011;42609;52.700;6.236;2023-04-01T13:02:13;5.20;;;3.40;;
56726;SDS011;42609;52.700;6.236;2023-04-01T13:08:41;5.72;;;3.60;;
56726;SDS011;42609;52.700;6.236;2023-04-01T13:13:28;5.47;;;3.58;;
56726;SDS011;42609;52.700;6.236;2023-04-01T13:16:16;5.75;;;3.58;;
56726;SDS011;42609;52.700;6.236;2023-04-01T13:19:07;5.57;;;3.70;;
56726;SDS011;42609;52.700;6.236;2023-04-01T13:27:34;5.50;;;3.67;;
56726;SDS011;42609;52.700;6.236;2023-04-01T13:33:04;5.55;;;4.00;;
56726;SDS011;42609;52.700;6.236;2023-04-01T13:44:22;5.90;;;4.20;;
56726;SDS011;42609;52.700;6.236;2023-04-01T13:47:12;6.55;;;4.50;;
56726;SDS011;42609;52.700;6.236;2023-04-01T13:58:30;4.95;;;3.55;;
56726;SDS011;42609;52.700;6.236;2023-04-01T14:04:23;4.53;;;2.80;;
56726;SDS011;42609;52.700;6.236;2023-04-01T14:10:05;4.22;;;2.88;;
56726;SDS011;42609;52.700;6.236;2023-04-01T14:12:47;4.53;;;2.67;;
56726;SDS011;42609;52.700;6.236;2023-04-01T14:15:35;4.47;;;2.70;;
56726;SDS011;42609;52.700;6.236;2023-04-01T14:20:45;4.53;;;2.92;;
56726;SDS011;42609;52.700;6.236;2023-04-01T14:23:32;4.25;;;2.80;;
56726;SDS011;42609;52.700;6.236;2023-04-01T14:26:22;5.43;;;3.00;;
56726;SDS011;42609;52.700;6.236;2023-04-01T14:31:34;4.75;;;3.30;;
56726;SDS011;42609;52.700;6.236;2023-04-01T14:34:25;4.47;;;3.03;;
56726;SDS011;42609;52.700;6.236;2023-04-01T14:37:08;6.05;;;3.10;;
56726;SDS011;42609;52.700;6.236;2023-04-01T14:50:13;4.35;;;2.88;;
56726;SDS011;42609;52.700;6.236;2023-04-01T14:53:29;3.70;;;2.60;;
56726;SDS011;42609;52.700;6.236;2023-04-01T14:58:17;3.40;;;2.40;;
56726;SDS011;42609;52.700;6.236;2023-04-01T15:21:49;3.20;;;1.92;;
56726;SDS011;42609;52.700;6.236;2023-04-01T15:38:24;3.70;;;1.85;;
56726;SDS011;42609;52.700;6.236;2023-04-01T15:41:02;2.65;;;1.70;;
56726;SDS011;42609;52.700;6.236;2023-04-01T15:49:33;3.08;;;2.00;;
56726;SDS011;42609;52.700;6.236;2023-04-01T16:00:09;4.85;;;2.63;;
56726;SDS011;42609;52.700;6.236;2023-04-01T16:08:10;4.65;;;2.33;;
56726;SDS011;42609;52.700;6.236;2023-04-01T16:13:46;4.50;;;2.47;;
56726;SDS011;42609;52.700;6.236;2023-04-01T16:16:23;6.05;;;2.28;;
56726;SDS011;42609;52.700;6.236;2023-04-01T16:27:02;3.67;;;2.38;;
56726;SDS011;42609;52.700;6.236;2023-04-01T16:34:44;5.07;;;2.45;;
56726;SDS011;42609;52.700;6.236;2023-04-01T16:37:20;3.95;;;2.28;;
56726;SDS011;42609;52.700;6.236;2023-04-01T16:51:26;4.35;;;2.22;;
56726;SDS011;42609;52.700;6.236;2023-04-01T16:54:05;3.50;;;2.30;;
56726;SDS011;42609;52.700;6.236;2023-04-01T17:04:39;3.35;;;2.08;;
56726;SDS011;42609;52.700;6.236;2023-04-01T17:07:21;3.80;;;2.03;;
56726;SDS011;42609;52.700;6.236;2023-04-01T17:15:57;4.25;;;2.35;;
56726;SDS011;42609;52.700;6.236;2023-04-01T17:21:36;3.63;;;2.33;;
56726;SDS011;42609;52.700;6.236;2023-04-01T17:27:06;5.45;;;3.10;;
56726;SDS011;42609;52.700;6.236;2023-04-01T17:35:17;6.28;;;4.10;;
56726;SDS011;42609;52.700;6.236;2023-04-01T17:40:58;7.75;;;4.72;;
56726;SDS011;42609;52.700;6.236;2023-04-01T17:43:49;6.13;;;4.13;;
56726;SDS011;42609;52.700;6.236;2023-04-01T17:46:31;6.55;;;4.35;;
56726;SDS011;42609;52.700;6.236;2023-04-01T17:49:05;6.38;;;4.43;;
56726;SDS011;42609;52.700;6.236;2023-04-01T17:54:44;6.75;;;4.25;;
56726;SDS011;42609;52.700;6.236;2023-04-01T17:57:28;6.85;;;4.68;;
56726;SDS011;42609;52.700;6.236;2023-04-01T18:08:12;7.15;;;4.43;;
56726;SDS011;42609;52.700;6.236;2023-04-01T18:13:54;7.25;;;4.70;;
56726;SDS011;42609;52.700;6.236;2023-04-01T18:20:11;7.35;;;5.10;;
56726;SDS011;42609;52.700;6.236;2023-04-01T18:23:03;7.78;;;4.93;;
56726;SDS011;42609;52.700;6.236;2023-04-01T18:25:47;7.30;;;4.68;;
56726;SDS011;42609;52.700;6.236;2023-04-01T18:31:36;8.70;;;4.70;;
56726;SDS011;42609;52.700;6.236;2023-04-01T18:47:45;7.00;;;4.20;;
56726;SDS011;42609;52.700;6.236;2023-04-01T18:50:41;7.43;;;4.07;;
56726;SDS011;42609;52.700;6.236;2023-04-01T18:53:35;8.82;;;6.40;;
56726;SDS011;42609;52.700;6.236;2023-04-01T18:56:06;6.85;;;5.05;;
56726;SDS011;42609;52.700;6.236;2023-04-01T19:01:34;7.75;;;4.80;;
56726;SDS011;42609;52.700;6.236;2023-04-01T19:04:26;8.00;;;5.10;;
56726;SDS011;42609;52.700;6.236;2023-04-01T19:16:17;8.80;;;5.00;;
56726;SDS011;42609;52.700;6.236;2023-04-01T19:19:20;7.85;;;5.22;;
56726;SDS011;42609;52.700;6.236;2023-04-01T19:22:03;8.05;;;5.13;;
56726;SDS011;42609;52.700;6.236;2023-04-01T19:25:09;7.40;;;5.20;;
56726;SDS011;42609;52.700;6.236;2023-04-01T19:31:01;8.35;;;5.40;;
56726;SDS011;42609;52.700;6.236;2023-04-01T19:36:45;9.77;;;6.05;;
56726;SDS011;42609;52.700;6.236;2023-04-01T19:42:26;12.95;;;7.32;;
56726;SDS011;42609;52.700;6.236;2023-04-01T19:54:13;20.45;;;12.35;;
56726;SDS011;42609;52.700;6.236;2023-04-01T19:56:17;27.02;;;14.45;;
56726;SDS011;42609;52.700;6.236;2023-04-01T20:02:03;10.68;;;6.47;;
56726;SDS011;42609;52.700;6.236;2023-04-01T20:04:42;10.82;;;7.10;;
56726;SDS011;42609;52.700;6.236;2023-04-01T20:09:49;9.70;;;6.57;;
56726;SDS011;42609;52.700;6.236;2023-04-01T20:15:00;11.98;;;6.78;;
56726;SDS011;42609;52.700;6.236;2023-04-01T20:20:01;10.98;;;6.75;;
56726;SDS011;42609;52.700;6.236;2023-04-01T20:25:17;9.30;;;6.25;;
56726;SDS011;42609;52.700;6.236;2023-04-01T20:27:56;10.07;;;6.25;;
56726;SDS011;42609;52.700;6.236;2023-04-01T20:36:15;10.52;;;6.20;;
56726;SDS011;42609;52.700;6.236;2023-04-01T20:41:35;10.35;;;6.22;;
56726;SDS011;42609;52.700;6.236;2023-04-01T20:44:26;11.88;;;7.22;;
56726;SDS011;42609;52.700;6.236;2023-04-01T20:47:24;10.43;;;6.60;;
56726;SDS011;42609;52.700;6.236;2023-04-01T21:00:48;13.93;;;7.30;;
56726;SDS011;42609;52.700;6.236;2023-04-01T21:03:41;12.75;;;7.75;;
56726;SDS011;42609;52.700;6.236;2023-04-01T21:11:22;13.75;;;7.18;;
56726;SDS011;42609;52.700;6.236;2023-04-01T21:19:51;11.65;;;7.43;;
56726;SDS011;42609;52.700;6.236;2023-04-01T21:34:55;16.23;;;7.30;;
56726;SDS011;42609;52.700;6.236;2023-04-01T21:54:08;14.77;;;8.00;;
56726;SDS011;42609;52.700;6.236;2023-04-01T21:56:56;11.73;;;7.20;;
56726;SDS011;42609;52.700;6.236;2023-04-01T22:05:25;14.25;;;8.40;;
56726;SDS011;42609;52.700;6.236;2023-04-01T22:13:48;19.75;;;10.73;;
56726;SDS011;42609;52.700;6.236;2023-04-01T22:22:21;12.90;;;7.45;;
56726;SDS011;42609;52.700;6.236;2023-04-01T22:28:05;14.20;;;7.78;;
56726;SDS011;42609;52.700;6.236;2023-04-01T22:30:39;11.73;;;7.30;;
56726;SDS011;42609;52.700;6.236;2023-04-01T22:35:57;14.63;;;7.25;;
56726;SDS011;42609;52.700;6.236;2023-04-01T22:43:41;12.43;;;6.95;;
56726;SDS011;42609;52.700;6.236;2023-04-01T22:49:22;16.02;;;7.53;;
56726;SDS011;42609;52.700;6.236;2023-04-01T22:52:14;14.10;;;8.00;;
56726;SDS011;42609;52.700;6.236;2023-04-01T22:54:59;13.13;;;6.75;;
56726;SDS011;42609;52.700;6.236;2023-04-01T23:05:51;14.90;;;7.50;;
56726;SDS011;42609;52.700;6.236;2023-04-01T23:11:00;13.65;;;6.95;;
56726;SDS011;42609;52.700;6.236;2023-04-01T23:13:30;13.40;;;7.30;;
56726;SDS011;42609;52.700;6.236;2023-04-01T23:16:02;16.77;;;7.70;;
56726;SDS011;42609;52.700;6.236;2023-04-01T23:21:18;11.68;;;6.93;;
56726;SDS011;42609;52.700;6.236;2023-04-01T23:24:00;11.63;;;6.55;;
56726;SDS011;42609;52.700;6.236;2023-04-01T23:26:47;11.95;;;7.35;;
56726;SDS011;42609;52.700;6.236;2023-04-01T23:29:21;13.70;;;7.15;;
56726;SDS011;42609;52.700;6.236;2023-04-01T23:31:49;18.92;;;7.57;;
56726;SDS011;42609;52.700;6.236;2023-04-01T23:34:24;13.07;;;7.22;;
56726;SDS011;42609;52.700;6.236;2023-04-01T23:36:53;12.90;;;6.82;;
56726;SDS011;42609;52.700;6.236;2023-04-01T23:39:32;15.55;;;7.13;;
56726;SDS011;42609;52.700;6.236;2023-04-01T23:42:07;14.10;;;6.72;;
56726;SDS011;42609;52.700;6.236;2023-04-01T23:44:44;11.05;;;6.60;;
56726;SDS011;42609;52.700;6.236;2023-04-01T23:47:13;12.05;;;6.93;;
56726;SDS011;42609;52.700;6.236;2023-04-01T23:50:01;12.88;;;6.43;;
56726;SDS011;42609;52.700;6.236;2023-04-01T23:52:35;11.05;;;6.22;;
56726;SDS011;42609;52.700;6.236;2023-04-01T23:57:36;12.65;;;6.60;;
